sensor_id;sensor_type;location;lat;lon;timestamp;P1;durP1;ratioP1;P2;durP2;ratioP2
58876;SDS011;44659;47.002;9.536;2022-11-14T00:00:04;45.53;;;13.70;;
58876;SDS011;44659;47.002;9.536;2022-11-14T00:02:30;22.40;;;13.43;;
58876;SDS011;44659;47.002;9.536;2022-11-14T00:04:56;37.10;;;13.07;;
58876;SDS011;44659;47.002;9.536;2022-11-14T00:07:21;22.65;;;12.73;;
58876;SDS011;44659;47.002;9.536;2022-11-14T00:09:47;19.08;;;12.98;;
58876;SDS011;44659;47.002;9.536;2022-11-14T00:12:12;44.78;;;15.23;;
58876;SDS011;44659;47.002;9.536;2022-11-14T00:14:37;20.95;;;13.95;;
58876;SDS011;44659;47.002;9.536;2022-11-14T00:17:03;24.77;;;13.65;;
58876;SDS011;44659;47.002;9.536;2022-11-14T00:19:29;31.80;;;14.73;;
58876;SDS011;44659;47.002;9.536;2022-11-14T00:21:54;52.35;;;14.35;;
58876;SDS011;44659;47.002;9.536;2022-11-14T00:24:25;18.95;;;13.32;;
58876;SDS011;44659;47.002;9.536;2022-11-14T00:26:51;19.40;;;13.45;;
58876;SDS011;44659;47.002;9.536;2022-11-14T00:29:17;18.02;;;12.85;;
58876;SDS011;44659;47.002;9.536;2022-11-14T00:31:45;18.27;;;12.35;;
58876;SDS011;44659;47.002;9.536;2022-11-14T00:34:12;8.50;;;5.03;;
58876;SDS011;44659;47.002;9.536;2022-11-14T00:36:37;5.25;;;3.03;;
58876;SDS011;44659;47.002;9.536;2022-11-14T00:39:03;6.30;;;2.30;;
58876;SDS011;44659;47.002;9.536;2022-11-14T00:41:29;3.72;;;1.92;;
58876;SDS011;44659;47.002;9.536;2022-11-14T00:43:54;4.35;;;1.80;;
58876;SDS011;44659;47.002;9.536;2022-11-14T00:46:22;3.83;;;1.67;;
58876;SDS011;44659;47.002;9.536;2022-11-14T00:48:47;2.70;;;1.30;;
58876;SDS011;44659;47.002;9.536;2022-11-14T00:51:13;1.98;;;1.10;;
58876;SDS011;44659;47.002;9.536;2022-11-14T00:53:38;1.52;;;1.10;;
58876;SDS011;44659;47.002;9.536;2022-11-14T00:56:04;2.60;;;1.30;;
58876;SDS011;44659;47.002;9.536;2022-11-14T00:58:30;4.03;;;1.20;;
58876;SDS011;44659;47.002;9.536;2022-11-14T01:00:56;1.90;;;1.20;;
58876;SDS011;44659;47.002;9.536;2022-11-14T01:03:27;3.00;;;1.10;;
58876;SDS011;44659;47.002;9.536;2022-11-14T01:05:52;2.03;;;1.10;;
58876;SDS011;44659;47.002;9.536;2022-11-14T01:08:18;1.60;;;1.00;;
58876;SDS011;44659;47.002;9.536;2022-11-14T01:10:45;1.42;;;0.93;;
58876;SDS011;44659;47.002;9.536;2022-11-14T01:13:11;3.47;;;1.10;;
58876;SDS011;44659;47.002;9.536;2022-11-14T01:15:37;2.03;;;1.00;;
58876;SDS011;44659;47.002;9.536;2022-11-14T01:18:03;1.92;;;0.98;;
58876;SDS011;44659;47.002;9.536;2022-11-14T01:20:28;1.00;;;0.80;;
58876;SDS011;44659;47.002;9.536;2022-11-14T01:22:54;1.10;;;0.88;;
58876;SDS011;44659;47.002;9.536;2022-11-14T01:25:19;3.60;;;0.85;;
58876;SDS011;44659;47.002;9.536;2022-11-14T01:27:44;2.35;;;1.10;;
58876;SDS011;44659;47.002;9.536;2022-11-14T01:30:10;2.67;;;0.80;;
58876;SDS011;44659;47.002;9.536;2022-11-14T01:32:36;1.60;;;0.80;;
58876;SDS011;44659;47.002;9.536;2022-11-14T01:35:01;1.20;;;0.77;;
58876;SDS011;44659;47.002;9.536;2022-11-14T01:37:27;1.15;;;0.77;;
58876;SDS011;44659;47.002;9.536;2022-11-14T01:39:52;0.82;;;0.68;;
58876;SDS011;44659;47.002;9.536;2022-11-14T01:42:18;1.08;;;0.60;;
58876;SDS011;44659;47.002;9.536;2022-11-14T01:44:47;1.45;;;0.80;;
58876;SDS011;44659;47.002;9.536;2022-11-14T01:47:15;1.67;;;0.90;;
58876;SDS011;44659;47.002;9.536;2022-11-14T01:49:43;1.25;;;0.70;;
58876;SDS011;44659;47.002;9.536;2022-11-14T01:52:11;1.35;;;0.73;;
58876;SDS011;44659;47.002;9.536;2022-11-14T01:54:40;1.05;;;0.63;;
58876;SDS011;44659;47.002;9.536;2022-11-14T01:57:07;1.10;;;0.63;;
58876;SDS011;44659;47.002;9.536;2022-11-14T01:59:39;0.73;;;0.50;;
58876;SDS011;44659;47.002;9.536;2022-11-14T02:02:07;1.33;;;0.70;;
58876;SDS011;44659;47.002;9.536;2022-11-14T02:04:55;1.27;;;0.70;;
58876;SDS011;44659;47.002;9.536;2022-11-14T02:07:21;0.50;;;0.50;;
58876;SDS011;44659;47.002;9.536;2022-11-14T02:09:54;0.90;;;0.50;;
58876;SDS011;44659;47.002;9.536;2022-11-14T02:12:20;1.40;;;0.73;;
58876;SDS011;44659;47.002;9.536;2022-11-14T02:14:47;1.35;;;0.70;;
58876;SDS011;44659;47.002;9.536;2022-11-14T02:17:13;0.60;;;0.57;;
58876;SDS011;44659;47.002;9.536;2022-11-14T02:19:46;3.33;;;0.60;;
58876;SDS011;44659;47.002;9.536;2022-11-14T02:22:12;1.75;;;0.50;;
58876;SDS011;44659;47.002;9.536;2022-11-14T02:24:37;1.17;;;0.60;;
58876;SDS011;44659;47.002;9.536;2022-11-14T02:27:03;0.90;;;0.50;;
58876;SDS011;44659;47.002;9.536;2022-11-14T02:29:29;2.00;;;0.73;;
58876;SDS011;44659;47.002;9.536;2022-11-14T02:31:58;0.80;;;0.50;;
58876;SDS011;44659;47.002;9.536;2022-11-14T02:34:23;0.50;;;0.50;;
58876;SDS011;44659;47.002;9.536;2022-11-14T02:36:49;0.73;;;0.60;;
58876;SDS011;44659;47.002;9.536;2022-11-14T02:39:14;1.10;;;0.75;;
58876;SDS011;44659;47.002;9.536;2022-11-14T02:41:40;1.00;;;0.68;;
58876;SDS011;44659;47.002;9.536;2022-11-14T02:44:05;2.40;;;0.65;;
58876;SDS011;44659;47.002;9.536;2022-11-14T02:46:30;0.70;;;0.50;;
58876;SDS011;44659;47.002;9.536;2022-11-14T02:48:55;1.05;;;0.60;;
58876;SDS011;44659;47.002;9.536;2022-11-14T02:51:21;0.82;;;0.55;;
58876;SDS011;44659;47.002;9.536;2022-11-14T02:53:46;1.17;;;0.63;;
58876;SDS011;44659;47.002;9.536;2022-11-14T02:56:11;0.63;;;0.50;;
58876;SDS011;44659;47.002;9.536;2022-11-14T02:58:36;0.38;;;0.38;;
58876;SDS011;44659;47.002;9.536;2022-11-14T03:01:02;0.55;;;0.50;;
58876;SDS011;44659;47.002;9.536;2022-11-14T03:03:27;1.13;;;0.70;;
58876;SDS011;44659;47.002;9.536;2022-11-14T03:05:57;0.55;;;0.43;;
58876;SDS011;44659;47.002;9.536;2022-11-14T03:08:22;1.38;;;0.50;;
58876;SDS011;44659;47.002;9.536;2022-11-14T03:10:47;1.33;;;0.60;;
58876;SDS011;44659;47.002;9.536;2022-11-14T03:13:12;0.80;;;0.40;;
58876;SDS011;44659;47.002;9.536;2022-11-14T03:15:41;0.50;;;0.50;;
58876;SDS011;44659;47.002;9.536;2022-11-14T03:18:08;1.35;;;0.60;;
58876;SDS011;44659;47.002;9.536;2022-11-14T03:20:33;0.80;;;0.52;;
58876;SDS011;44659;47.002;9.536;2022-11-14T03:22:59;0.40;;;0.40;;
58876;SDS011;44659;47.002;9.536;2022-11-14T03:25:24;1.27;;;0.50;;
58876;SDS011;44659;47.002;9.536;2022-11-14T03:27:49;0.65;;;0.50;;
58876;SDS011;44659;47.002;9.536;2022-11-14T03:30:15;0.60;;;0.50;;
58876;SDS011;44659;47.002;9.536;2022-11-14T03:32:40;0.68;;;0.50;;
58876;SDS011;44659;47.002;9.536;2022-11-14T03:35:05;0.55;;;0.45;;
58876;SDS011;44659;47.002;9.536;2022-11-14T03:37:31;1.10;;;0.45;;
58876;SDS011;44659;47.002;9.536;2022-11-14T03:39:57;0.60;;;0.60;;
58876;SDS011;44659;47.002;9.536;2022-11-14T03:42:22;0.70;;;0.50;;
58876;SDS011;44659;47.002;9.536;2022-11-14T03:44:48;0.93;;;0.50;;
58876;SDS011;44659;47.002;9.536;2022-11-14T03:47:13;0.90;;;0.60;;
58876;SDS011;44659;47.002;9.536;2022-11-14T03:49:38;0.70;;;0.50;;
58876;SDS011;44659;47.002;9.536;2022-11-14T03:52:04;1.50;;;0.60;;
58876;SDS011;44659;47.002;9.536;2022-11-14T03:54:30;0.40;;;0.40;;
58876;SDS011;44659;47.002;9.536;2022-11-14T03:56:55;1.27;;;0.55;;
58876;SDS011;44659;47.002;9.536;2022-11-14T03:59:20;0.52;;;0.50;;
58876;SDS011;44659;47.002;9.536;2022-11-14T04:01:45;1.17;;;0.63;;
58876;SDS011;44659;47.002;9.536;2022-11-14T04:04:12;0.50;;;0.50;;
58876;SDS011;44659;47.002;9.536;2022-11-14T04:06:38;1.23;;;0.75;;
58876;SDS011;44659;47.002;9.536;2022-11-14T04:09:03;1.35;;;0.70;;
58876;SDS011;44659;47.002;9.536;2022-11-14T04:11:28;0.70;;;0.57;;
58876;SDS011;44659;47.002;9.536;2022-11-14T04:13:54;1.27;;;0.60;;
58876;SDS011;44659;47.002;9.536;2022-11-14T04:16:20;1.13;;;0.70;;
58876;SDS011;44659;47.002;9.536;2022-11-14T04:18:47;1.50;;;0.70;;
58876;SDS011;44659;47.002;9.536;2022-11-14T04:21:12;0.82;;;0.60;;
58876;SDS011;44659;47.002;9.536;2022-11-14T04:23:37;2.42;;;1.00;;
58876;SDS011;44659;47.002;9.536;2022-11-14T04:26:03;1.35;;;0.70;;
58876;SDS011;44659;47.002;9.536;2022-11-14T04:28:29;1.27;;;0.73;;
58876;SDS011;44659;47.002;9.536;2022-11-14T04:30:54;2.35;;;0.93;;
58876;SDS011;44659;47.002;9.536;2022-11-14T04:33:19;1.00;;;0.70;;
58876;SDS011;44659;47.002;9.536;2022-11-14T04:35:45;1.35;;;0.98;;
58876;SDS011;44659;47.002;9.536;2022-11-14T04:38:10;1.48;;;0.80;;
58876;SDS011;44659;47.002;9.536;2022-11-14T04:40:36;1.10;;;0.80;;
58876;SDS011;44659;47.002;9.536;2022-11-14T04:43:01;1.13;;;0.75;;
58876;SDS011;44659;47.002;9.536;2022-11-14T04:45:26;2.03;;;1.40;;
58876;SDS011;44659;47.002;9.536;2022-11-14T04:47:52;1.65;;;0.90;;
58876;SDS011;44659;47.002;9.536;2022-11-14T04:50:17;1.55;;;0.80;;
58876;SDS011;44659;47.002;9.536;2022-11-14T04:52:42;1.67;;;0.93;;
58876;SDS011;44659;47.002;9.536;2022-11-14T04:55:08;1.45;;;0.90;;
58876;SDS011;44659;47.002;9.536;2022-11-14T04:57:33;6.85;;;1.08;;
58876;SDS011;44659;47.002;9.536;2022-11-14T04:59:58;1.30;;;0.90;;
58876;SDS011;44659;47.002;9.536;2022-11-14T05:02:25;1.88;;;0.95;;
58876;SDS011;44659;47.002;9.536;2022-11-14T05:04:50;1.85;;;1.20;;
58876;SDS011;44659;47.002;9.536;2022-11-14T05:07:16;2.05;;;0.95;;
58876;SDS011;44659;47.002;9.536;2022-11-14T05:09:41;1.25;;;0.80;;
58876;SDS011;44659;47.002;9.536;2022-11-14T05:12:06;2.00;;;1.00;;
58876;SDS011;44659;47.002;9.536;2022-11-14T05:14:31;2.88;;;0.93;;
58876;SDS011;44659;47.002;9.536;2022-11-14T05:16:57;1.67;;;0.90;;
58876;SDS011;44659;47.002;9.536;2022-11-14T05:19:22;2.13;;;0.90;;
58876;SDS011;44659;47.002;9.536;2022-11-14T05:21:48;2.33;;;1.00;;
58876;SDS011;44659;47.002;9.536;2022-11-14T05:24:13;1.98;;;0.80;;
58876;SDS011;44659;47.002;9.536;2022-11-14T05:26:38;5.30;;;1.38;;
58876;SDS011;44659;47.002;9.536;2022-11-14T05:29:03;1.92;;;0.73;;
58876;SDS011;44659;47.002;9.536;2022-11-14T05:31:29;2.78;;;1.30;;
58876;SDS011;44659;47.002;9.536;2022-11-14T05:33:54;1.23;;;0.80;;
58876;SDS011;44659;47.002;9.536;2022-11-14T05:36:19;1.67;;;0.85;;
58876;SDS011;44659;47.002;9.536;2022-11-14T05:38:44;1.25;;;0.70;;
58876;SDS011;44659;47.002;9.536;2022-11-14T05:41:11;2.03;;;0.90;;
58876;SDS011;44659;47.002;9.536;2022-11-14T05:43:36;0.95;;;0.70;;
58876;SDS011;44659;47.002;9.536;2022-11-14T05:46:03;1.50;;;0.75;;
58876;SDS011;44659;47.002;9.536;2022-11-14T05:48:28;0.80;;;0.70;;
58876;SDS011;44659;47.002;9.536;2022-11-14T05:50:54;1.63;;;0.82;;
58876;SDS011;44659;47.002;9.536;2022-11-14T05:53:20;1.52;;;0.90;;
58876;SDS011;44659;47.002;9.536;2022-11-14T05:55:45;2.08;;;0.88;;
58876;SDS011;44659;47.002;9.536;2022-11-14T05:58:10;1.80;;;0.90;;
58876;SDS011;44659;47.002;9.536;2022-11-14T06:00:35;2.20;;;1.00;;
58876;SDS011;44659;47.002;9.536;2022-11-14T06:03:01;2.33;;;1.05;;
58876;SDS011;44659;47.002;9.536;2022-11-14T06:05:26;3.50;;;1.05;;
58876;SDS011;44659;47.002;9.536;2022-11-14T06:07:57;1.45;;;0.93;;
58876;SDS011;44659;47.002;9.536;2022-11-14T06:10:23;0.82;;;0.70;;
58876;SDS011;44659;47.002;9.536;2022-11-14T06:12:48;2.20;;;1.05;;
58876;SDS011;44659;47.002;9.536;2022-11-14T06:15:13;2.60;;;0.98;;
58876;SDS011;44659;47.002;9.536;2022-11-14T06:17:38;1.92;;;1.10;;
58876;SDS011;44659;47.002;9.536;2022-11-14T06:20:04;1.17;;;0.80;;
58876;SDS011;44659;47.002;9.536;2022-11-14T06:22:29;1.58;;;0.77;;
58876;SDS011;44659;47.002;9.536;2022-11-14T06:24:54;1.47;;;0.80;;
58876;SDS011;44659;47.002;9.536;2022-11-14T06:27:19;1.60;;;0.83;;
58876;SDS011;44659;47.002;9.536;2022-11-14T06:29:45;2.03;;;0.90;;
58876;SDS011;44659;47.002;9.536;2022-11-14T06:32:10;1.33;;;0.90;;
58876;SDS011;44659;47.002;9.536;2022-11-14T06:34:35;2.05;;;0.82;;
58876;SDS011;44659;47.002;9.536;2022-11-14T06:37:00;2.85;;;1.20;;
58876;SDS011;44659;47.002;9.536;2022-11-14T06:39:26;2.50;;;1.17;;
58876;SDS011;44659;47.002;9.536;2022-11-14T06:41:51;1.38;;;0.80;;
58876;SDS011;44659;47.002;9.536;2022-11-14T06:44:16;1.52;;;0.90;;
58876;SDS011;44659;47.002;9.536;2022-11-14T06:46:41;1.75;;;0.82;;
58876;SDS011;44659;47.002;9.536;2022-11-14T06:49:07;2.35;;;0.98;;
58876;SDS011;44659;47.002;9.536;2022-11-14T06:51:32;2.17;;;0.80;;
58876;SDS011;44659;47.002;9.536;2022-11-14T06:53:57;2.95;;;0.95;;
58876;SDS011;44659;47.002;9.536;2022-11-14T06:56:22;3.30;;;1.03;;
58876;SDS011;44659;47.002;9.536;2022-11-14T06:58:48;1.00;;;0.70;;
58876;SDS011;44659;47.002;9.536;2022-11-14T07:01:14;2.47;;;1.00;;
58876;SDS011;44659;47.002;9.536;2022-11-14T07:03:40;3.30;;;1.15;;
58876;SDS011;44659;47.002;9.536;2022-11-14T07:06:06;2.85;;;0.90;;
58876;SDS011;44659;47.002;9.536;2022-11-14T07:08:31;1.65;;;0.70;;
58876;SDS011;44659;47.002;9.536;2022-11-14T07:11:01;1.58;;;0.82;;
58876;SDS011;44659;47.002;9.536;2022-11-14T07:13:26;1.45;;;0.85;;
58876;SDS011;44659;47.002;9.536;2022-11-14T07:15:52;2.85;;;0.80;;
58876;SDS011;44659;47.002;9.536;2022-11-14T07:18:18;1.38;;;0.70;;
58876;SDS011;44659;47.002;9.536;2022-11-14T07:20:43;3.72;;;1.05;;
58876;SDS011;44659;47.002;9.536;2022-11-14T07:23:08;1.10;;;0.70;;
58876;SDS011;44659;47.002;9.536;2022-11-14T07:25:33;8.90;;;0.90;;
58876;SDS011;44659;47.002;9.536;2022-11-14T07:27:58;2.60;;;0.90;;
58876;SDS011;44659;47.002;9.536;2022-11-14T07:30:24;1.73;;;0.70;;
58876;SDS011;44659;47.002;9.536;2022-11-14T07:32:58;3.40;;;0.80;;
58876;SDS011;44659;47.002;9.536;2022-11-14T07:35:23;2.05;;;0.80;;
58876;SDS011;44659;47.002;9.536;2022-11-14T07:37:49;1.35;;;0.80;;
58876;SDS011;44659;47.002;9.536;2022-11-14T07:40:14;1.88;;;0.70;;
58876;SDS011;44659;47.002;9.536;2022-11-14T07:42:40;2.42;;;0.80;;
58876;SDS011;44659;47.002;9.536;2022-11-14T07:45:05;1.03;;;0.60;;
58876;SDS011;44659;47.002;9.536;2022-11-14T07:47:30;0.70;;;0.60;;
58876;SDS011;44659;47.002;9.536;2022-11-14T07:49:55;1.48;;;0.80;;
58876;SDS011;44659;47.002;9.536;2022-11-14T07:52:21;2.03;;;0.70;;
58876;SDS011;44659;47.002;9.536;2022-11-14T07:54:46;1.17;;;0.80;;
58876;SDS011;44659;47.002;9.536;2022-11-14T07:57:11;2.50;;;0.60;;
58876;SDS011;44659;47.002;9.536;2022-11-14T07:59:37;2.03;;;0.60;;
58876;SDS011;44659;47.002;9.536;2022-11-14T08:02:02;0.93;;;0.60;;
58876;SDS011;44659;47.002;9.536;2022-11-14T08:04:27;3.90;;;0.95;;
58876;SDS011;44659;47.002;9.536;2022-11-14T08:06:52;1.30;;;0.60;;
58876;SDS011;44659;47.002;9.536;2022-11-14T08:09:17;1.37;;;0.80;;
58876;SDS011;44659;47.002;9.536;2022-11-14T08:11:43;1.77;;;0.88;;
58876;SDS011;44659;47.002;9.536;2022-11-14T08:14:15;1.42;;;0.63;;
58876;SDS011;44659;47.002;9.536;2022-11-14T08:16:40;1.50;;;0.73;;
58876;SDS011;44659;47.002;9.536;2022-11-14T08:19:05;2.15;;;0.80;;
58876;SDS011;44659;47.002;9.536;2022-11-14T08:21:30;1.35;;;0.70;;
58876;SDS011;44659;47.002;9.536;2022-11-14T08:23:56;0.50;;;0.50;;
58876;SDS011;44659;47.002;9.536;2022-11-14T08:26:21;0.75;;;0.50;;
58876;SDS011;44659;47.002;9.536;2022-11-14T08:28:46;1.37;;;0.50;;
58876;SDS011;44659;47.002;9.536;2022-11-14T08:31:11;1.27;;;0.60;;
58876;SDS011;44659;47.002;9.536;2022-11-14T08:33:37;1.33;;;0.70;;
58876;SDS011;44659;47.002;9.536;2022-11-14T08:36:03;1.95;;;0.70;;
58876;SDS011;44659;47.002;9.536;2022-11-14T08:38:29;1.25;;;0.55;;
58876;SDS011;44659;47.002;9.536;2022-11-14T08:40:58;0.50;;;0.50;;
58876;SDS011;44659;47.002;9.536;2022-11-14T08:43:24;3.40;;;0.70;;
58876;SDS011;44659;47.002;9.536;2022-11-14T08:45:49;3.35;;;0.80;;
58876;SDS011;44659;47.002;9.536;2022-11-14T08:48:14;1.45;;;0.75;;
58876;SDS011;44659;47.002;9.536;2022-11-14T08:50:40;1.75;;;0.75;;
58876;SDS011;44659;47.002;9.536;2022-11-14T08:53:05;3.03;;;0.70;;
58876;SDS011;44659;47.002;9.536;2022-11-14T08:55:30;2.10;;;0.70;;
58876;SDS011;44659;47.002;9.536;2022-11-14T08:57:55;1.20;;;0.70;;
58876;SDS011;44659;47.002;9.536;2022-11-14T09:00:21;1.93;;;1.00;;
58876;SDS011;44659;47.002;9.536;2022-11-14T09:02:46;7.53;;;0.88;;
58876;SDS011;44659;47.002;9.536;2022-11-14T09:05:11;2.72;;;0.70;;
58876;SDS011;44659;47.002;9.536;2022-11-14T09:07:36;1.37;;;0.67;;
58876;SDS011;44659;47.002;9.536;2022-11-14T09:10:02;1.55;;;0.73;;
58876;SDS011;44659;47.002;9.536;2022-11-14T09:12:28;6.78;;;0.90;;
58876;SDS011;44659;47.002;9.536;2022-11-14T09:14:53;3.90;;;0.63;;
58876;SDS011;44659;47.002;9.536;2022-11-14T09:17:18;1.67;;;0.70;;
58876;SDS011;44659;47.002;9.536;2022-11-14T09:19:43;2.30;;;0.83;;
58876;SDS011;44659;47.002;9.536;2022-11-14T09:22:08;3.05;;;0.60;;
58876;SDS011;44659;47.002;9.536;2022-11-14T09:24:34;4.37;;;0.70;;
58876;SDS011;44659;47.002;9.536;2022-11-14T09:26:59;1.07;;;0.60;;
58876;SDS011;44659;47.002;9.536;2022-11-14T09:29:24;1.43;;;0.63;;
58876;SDS011;44659;47.002;9.536;2022-11-14T09:31:50;1.40;;;0.70;;
58876;SDS011;44659;47.002;9.536;2022-11-14T09:34:15;1.60;;;0.70;;
58876;SDS011;44659;47.002;9.536;2022-11-14T09:36:41;2.42;;;0.60;;
58876;SDS011;44659;47.002;9.536;2022-11-14T09:39:06;0.70;;;0.60;;
58876;SDS011;44659;47.002;9.536;2022-11-14T09:44:24;3.22;;;0.63;;
58876;SDS011;44659;47.002;9.536;2022-11-14T09:46:55;1.27;;;0.73;;
58876;SDS011;44659;47.002;9.536;2022-11-14T09:51:48;1.20;;;0.73;;
58876;SDS011;44659;47.002;9.536;2022-11-14T09:54:16;1.80;;;0.60;;
58876;SDS011;44659;47.002;9.536;2022-11-14T09:56:42;1.08;;;0.60;;
58876;SDS011;44659;47.002;9.536;2022-11-14T09:59:09;2.80;;;0.50;;
58876;SDS011;44659;47.002;9.536;2022-11-14T10:04:48;0.70;;;0.50;;
58876;SDS011;44659;47.002;9.536;2022-11-14T10:06:59;0.73;;;0.50;;
58876;SDS011;44659;47.002;9.536;2022-11-14T10:12:21;3.15;;;0.50;;
58876;SDS011;44659;47.002;9.536;2022-11-14T10:14:52;0.98;;;0.50;;
58876;SDS011;44659;47.002;9.536;2022-11-14T10:19:54;0.40;;;0.40;;
58876;SDS011;44659;47.002;9.536;2022-11-14T10:22:43;1.98;;;0.40;;
58876;SDS011;44659;47.002;9.536;2022-11-14T10:27:49;5.30;;;0.73;;
58876;SDS011;44659;47.002;9.536;2022-11-14T10:30:18;1.80;;;0.50;;
58876;SDS011;44659;47.002;9.536;2022-11-14T10:33:00;2.53;;;1.10;;
58876;SDS011;44659;47.002;9.536;2022-11-14T10:35:30;1.17;;;0.43;;
58876;SDS011;44659;47.002;9.536;2022-11-14T10:38:19;0.50;;;0.40;;
58876;SDS011;44659;47.002;9.536;2022-11-14T10:40:47;0.70;;;0.40;;
58876;SDS011;44659;47.002;9.536;2022-11-14T10:45:45;1.38;;;0.40;;
58876;SDS011;44659;47.002;9.536;2022-11-14T10:48:12;0.50;;;0.40;;
58876;SDS011;44659;47.002;9.536;2022-11-14T10:53:04;0.70;;;0.40;;
58876;SDS011;44659;47.002;9.536;2022-11-14T10:55:30;0.85;;;0.50;;
58876;SDS011;44659;47.002;9.536;2022-11-14T10:57:56;0.63;;;0.40;;
58876;SDS011;44659;47.002;9.536;2022-11-14T11:00:22;1.42;;;0.57;;
58876;SDS011;44659;47.002;9.536;2022-11-14T11:02:52;0.30;;;0.28;;
58876;SDS011;44659;47.002;9.536;2022-11-14T11:05:18;0.60;;;0.40;;
58876;SDS011;44659;47.002;9.536;2022-11-14T11:07:45;0.57;;;0.40;;
58876;SDS011;44659;47.002;9.536;2022-11-14T11:10:30;1.13;;;0.50;;
58876;SDS011;44659;47.002;9.536;2022-11-14T11:13:26;1.48;;;0.22;;
58876;SDS011;44659;47.002;9.536;2022-11-14T11:15:54;0.30;;;0.30;;
58876;SDS011;44659;47.002;9.536;2022-11-14T11:18:28;0.30;;;0.30;;
58876;SDS011;44659;47.002;9.536;2022-11-14T11:23:27;1.02;;;0.32;;
58876;SDS011;44659;47.002;9.536;2022-11-14T11:26:00;0.60;;;0.37;;
58876;SDS011;44659;47.002;9.536;2022-11-14T11:28:31;0.30;;;0.30;;
58876;SDS011;44659;47.002;9.536;2022-11-14T11:33:26;0.50;;;0.30;;
58876;SDS011;44659;47.002;9.536;2022-11-14T11:35:54;1.13;;;0.50;;
58876;SDS011;44659;47.002;9.536;2022-11-14T11:38:20;0.70;;;0.30;;
58876;SDS011;44659;47.002;9.536;2022-11-14T11:40:46;1.45;;;0.50;;
58876;SDS011;44659;47.002;9.536;2022-11-14T11:45:47;0.75;;;0.47;;
58876;SDS011;44659;47.002;9.536;2022-11-14T11:48:17;1.67;;;0.50;;
58876;SDS011;44659;47.002;9.536;2022-11-14T11:50:43;0.82;;;0.32;;
58876;SDS011;44659;47.002;9.536;2022-11-14T11:53:33;0.75;;;0.30;;
58876;SDS011;44659;47.002;9.536;2022-11-14T11:56:21;0.43;;;0.30;;
58876;SDS011;44659;47.002;9.536;2022-11-14T12:01:30;0.73;;;0.30;;
58876;SDS011;44659;47.002;9.536;2022-11-14T12:04:06;1.23;;;0.40;;
58876;SDS011;44659;47.002;9.536;2022-11-14T12:06:42;0.32;;;0.22;;
58876;SDS011;44659;47.002;9.536;2022-11-14T12:09:37;0.52;;;0.45;;
58876;SDS011;44659;47.002;9.536;2022-11-14T12:21:44;0.77;;;0.40;;
58876;SDS011;44659;47.002;9.536;2022-11-14T12:30:19;0.50;;;0.35;;
58876;SDS011;44659;47.002;9.536;2022-11-14T12:38:51;0.38;;;0.38;;
58876;SDS011;44659;47.002;9.536;2022-11-14T12:41:27;0.75;;;0.43;;
58876;SDS011;44659;47.002;9.536;2022-11-14T12:47:17;0.30;;;0.30;;
58876;SDS011;44659;47.002;9.536;2022-11-14T12:50:28;0.30;;;0.30;;
58876;SDS011;44659;47.002;9.536;2022-11-14T12:52:58;0.57;;;0.40;;
58876;SDS011;44659;47.002;9.536;2022-11-14T13:00:37;0.20;;;0.20;;
58876;SDS011;44659;47.002;9.536;2022-11-14T13:03:25;0.20;;;0.20;;
58876;SDS011;44659;47.002;9.536;2022-11-14T13:14:25;0.70;;;0.30;;
58876;SDS011;44659;47.002;9.536;2022-11-14T13:19:56;0.10;;;0.10;;
58876;SDS011;44659;47.002;9.536;2022-11-14T13:31:22;0.30;;;0.30;;
58876;SDS011;44659;47.002;9.536;2022-11-14T13:44:35;0.40;;;0.22;;
58876;SDS011;44659;47.002;9.536;2022-11-14T13:49:48;0.30;;;0.20;;
58876;SDS011;44659;47.002;9.536;2022-11-14T13:52:16;0.63;;;0.30;;
58876;SDS011;44659;47.002;9.536;2022-11-14T13:54:48;0.25;;;0.25;;
58876;SDS011;44659;47.002;9.536;2022-11-14T13:57:24;0.40;;;0.30;;
58876;SDS011;44659;47.002;9.536;2022-11-14T14:04:52;4.50;;;0.22;;
58876;SDS011;44659;47.002;9.536;2022-11-14T14:18:43;1.05;;;0.35;;
58876;SDS011;44659;47.002;9.536;2022-11-14T14:26:14;2.05;;;0.50;;
58876;SDS011;44659;47.002;9.536;2022-11-14T14:28:49;0.40;;;0.40;;
58876;SDS011;44659;47.002;9.536;2022-11-14T14:31:20;1.73;;;0.47;;
58876;SDS011;44659;47.002;9.536;2022-11-14T14:33:48;0.60;;;0.32;;
58876;SDS011;44659;47.002;9.536;2022-11-14T14:36:24;2.05;;;0.40;;
58876;SDS011;44659;47.002;9.536;2022-11-14T14:39:14;0.25;;;0.20;;
58876;SDS011;44659;47.002;9.536;2022-11-14T14:41:56;0.40;;;0.40;;
58876;SDS011;44659;47.002;9.536;2022-11-14T14:47:26;0.75;;;0.40;;
58876;SDS011;44659;47.002;9.536;2022-11-14T14:49:53;0.45;;;0.45;;
58876;SDS011;44659;47.002;9.536;2022-11-14T14:52:29;0.60;;;0.47;;
58876;SDS011;44659;47.002;9.536;2022-11-14T14:54:55;0.30;;;0.30;;
58876;SDS011;44659;47.002;9.536;2022-11-14T14:57:20;0.40;;;0.40;;
58876;SDS011;44659;47.002;9.536;2022-11-14T14:59:46;0.30;;;0.30;;
58876;SDS011;44659;47.002;9.536;2022-11-14T15:02:22;0.52;;;0.35;;
58876;SDS011;44659;47.002;9.536;2022-11-14T15:04:48;0.30;;;0.30;;
58876;SDS011;44659;47.002;9.536;2022-11-14T15:07:19;0.30;;;0.30;;
58876;SDS011;44659;47.002;9.536;2022-11-14T15:09:58;0.30;;;0.30;;
58876;SDS011;44659;47.002;9.536;2022-11-14T15:12:25;0.40;;;0.40;;
58876;SDS011;44659;47.002;9.536;2022-11-14T15:14:52;0.30;;;0.30;;
58876;SDS011;44659;47.002;9.536;2022-11-14T15:17:18;0.63;;;0.30;;
58876;SDS011;44659;47.002;9.536;2022-11-14T15:19:44;0.75;;;0.50;;
58876;SDS011;44659;47.002;9.536;2022-11-14T15:24:42;0.30;;;0.30;;
58876;SDS011;44659;47.002;9.536;2022-11-14T15:27:27;0.95;;;0.32;;
58876;SDS011;44659;47.002;9.536;2022-11-14T15:29:52;0.52;;;0.40;;
58876;SDS011;44659;47.002;9.536;2022-11-14T15:32:24;0.63;;;0.40;;
58876;SDS011;44659;47.002;9.536;2022-11-14T15:35:23;1.55;;;0.50;;
58876;SDS011;44659;47.002;9.536;2022-11-14T15:38:05;1.63;;;0.90;;
58876;SDS011;44659;47.002;9.536;2022-11-14T15:40:36;0.38;;;0.30;;
58876;SDS011;44659;47.002;9.536;2022-11-14T15:45:40;1.38;;;0.60;;
58876;SDS011;44659;47.002;9.536;2022-11-14T19:06:40;1.52;;;0.80;;
58876;SDS011;44659;47.002;9.536;2022-11-14T19:09:13;1.48;;;0.80;;
